sensor_id;sensor_type;location;lat;lon;timestamp;temperature;humidity
35682;DHT22;21805;51.022;4.782;2023-07-13T01:33:51;17.90;99.90
35682;DHT22;21805;51.022;4.782;2023-07-13T01:36:17;17.90;99.90
35682;DHT22;21805;51.022;4.782;2023-07-13T01:38:42;17.90;99.90
35682;DHT22;21805;51.022;4.782;2023-07-13T01:41:08;17.90;99.90
35682;DHT22;21805;51.022;4.782;2023-07-13T01:43:34;17.90;99.90
35682;DHT22;21805;51.022;4.782;2023-07-13T01:46:02;17.90;99.90
35682;DHT22;21805;51.022;4.782;2023-07-13T01:48:28;17.90;99.90
35682;DHT22;21805;51.022;4.782;2023-07-13T01:50:53;18.00;99.90
35682;DHT22;21805;51.022;4.782;2023-07-13T01:53:19;17.90;99.90
35682;DHT22;21805;51.022;4.782;2023-07-13T01:55:45;18.00;99.90
35682;DHT22;21805;51.022;4.782;2023-07-13T01:58:11;18.00;99.90
35682;DHT22;21805;51.022;4.782;2023-07-13T02:00:37;18.00;99.90
35682;DHT22;21805;51.022;4.782;2023-07-13T02:03:02;18.10;99.90
35682;DHT22;21805;51.022;4.782;2023-07-13T02:05:28;18.00;99.90
35682;DHT22;21805;51.022;4.782;2023-07-13T02:07:54;18.00;99.90
35682;DHT22;21805;51.022;4.782;2023-07-13T02:10:20;18.00;99.90
35682;DHT22;21805;51.022;4.782;2023-07-13T02:12:47;18.00;99.90
35682;DHT22;21805;51.022;4.782;2023-07-13T02:15:13;17.90;99.90
35682;DHT22;21805;51.022;4.782;2023-07-13T02:17:39;17.90;99.90
35682;DHT22;21805;51.022;4.782;2023-07-13T02:20:05;17.90;99.90
35682;DHT22;21805;51.022;4.782;2023-07-13T02:22:30;17.90;99.90
35682;DHT22;21805;51.022;4.782;2023-07-13T02:24:56;17.80;99.90
35682;DHT22;21805;51.022;4.782;2023-07-13T02:27:22;17.80;99.90
35682;DHT22;21805;51.022;4.782;2023-07-13T02:29:47;17.90;99.90
35682;DHT22;21805;51.022;4.782;2023-07-13T02:32:13;17.90;99.90
35682;DHT22;21805;51.022;4.782;2023-07-13T02:34:40;17.90;99.90
35682;DHT22;21805;51.022;4.782;2023-07-13T02:37:06;17.90;99.90
35682;DHT22;21805;51.022;4.782;2023-07-13T02:39:31;17.90;99.90
35682;DHT22;21805;51.022;4.782;2023-07-13T02:41:58;17.90;99.90
35682;DHT22;21805;51.022;4.782;2023-07-13T02:44:24;17.90;99.90
35682;DHT22;21805;51.022;4.782;2023-07-13T02:46:50;17.90;99.90
35682;DHT22;21805;51.022;4.782;2023-07-13T02:49:15;17.90;99.90
35682;DHT22;21805;51.022;4.782;2023-07-13T02:51:41;17.90;99.90
35682;DHT22;21805;51.022;4.782;2023-07-13T02:54:06;17.90;99.90
35682;DHT22;21805;51.022;4.782;2023-07-13T02:56:33;17.80;99.90
35682;DHT22;21805;51.022;4.782;2023-07-13T02:58:59;17.80;99.90
35682;DHT22;21805;51.022;4.782;2023-07-13T03:01:25;17.70;99.90
35682;DHT22;21805;51.022;4.782;2023-07-13T03:03:51;17.70;99.90
35682;DHT22;21805;51.022;4.782;2023-07-13T03:06:17;17.70;99.90
35682;DHT22;21805;51.022;4.782;2023-07-13T03:08:43;17.70;99.90
35682;DHT22;21805;51.022;4.782;2023-07-13T03:11:11;17.80;99.90
35682;DHT22;21805;51.022;4.782;2023-07-13T03:13:37;17.80;99.90
35682;DHT22;21805;51.022;4.782;2023-07-13T03:16:03;17.80;99.90
35682;DHT22;21805;51.022;4.782;2023-07-13T03:18:29;17.80;99.90
35682;DHT22;21805;51.022;4.782;2023-07-13T03:20:55;17.90;99.90
35682;DHT22;21805;51.022;4.782;2023-07-13T03:23:21;17.90;99.90
35682;DHT22;21805;51.022;4.782;2023-07-13T03:25:47;17.80;99.90
35682;DHT22;21805;51.022;4.782;2023-07-13T03:28:13;17.80;99.90
35682;DHT22;21805;51.022;4.782;2023-07-13T03:30:39;17.80;99.90
35682;DHT22;21805;51.022;4.782;2023-07-13T03:33:04;17.80;99.90
35682;DHT22;21805;51.022;4.782;2023-07-13T03:35:30;17.80;99.90
35682;DHT22;21805;51.022;4.782;2023-07-13T03:37:58;17.80;99.90
35682;DHT22;21805;51.022;4.782;2023-07-13T03:40:24;17.80;99.90
35682;DHT22;21805;51.022;4.782;2023-07-13T03:42:51;17.90;99.90
35682;DHT22;21805;51.022;4.782;2023-07-13T03:45:17;17.90;99.90
35682;DHT22;21805;51.022;4.782;2023-07-13T03:47:43;17.90;99.90
35682;DHT22;21805;51.022;4.782;2023-07-13T03:50:08;17.90;99.90
35682;DHT22;21805;51.022;4.782;2023-07-13T03:52:34;18.00;99.90
35682;DHT22;21805;51.022;4.782;2023-07-13T03:54:59;17.90;99.90
35682;DHT22;21805;51.022;4.782;2023-07-13T03:57:25;17.90;99.90
35682;DHT22;21805;51.022;4.782;2023-07-13T03:59:51;18.00;99.90
35682;DHT22;21805;51.022;4.782;2023-07-13T04:02:16;17.90;99.90
35682;DHT22;21805;51.022;4.782;2023-07-13T04:04:43;17.90;99.90
35682;DHT22;21805;51.022;4.782;2023-07-13T04:07:08;18.00;99.90
35682;DHT22;21805;51.022;4.782;2023-07-13T04:09:34;18.00;99.90
35682;DHT22;21805;51.022;4.782;2023-07-13T04:12:00;17.90;99.90
35682;DHT22;21805;51.022;4.782;2023-07-13T04:14:25;17.80;99.90
35682;DHT22;21805;51.022;4.782;2023-07-13T04:16:51;17.80;99.90
35682;DHT22;21805;51.022;4.782;2023-07-13T04:19:16;17.90;99.90
35682;DHT22;21805;51.022;4.782;2023-07-13T04:21:42;17.90;99.90
35682;DHT22;21805;51.022;4.782;2023-07-13T04:24:08;17.90;99.90
35682;DHT22;21805;51.022;4.782;2023-07-13T04:26:34;18.00;99.90
35682;DHT22;21805;51.022;4.782;2023-07-13T04:29:01;18.00;99.90
35682;DHT22;21805;51.022;4.782;2023-07-13T04:31:29;18.00;99.90
35682;DHT22;21805;51.022;4.782;2023-07-13T04:33:54;18.00;99.90
35682;DHT22;21805;51.022;4.782;2023-07-13T04:36:20;18.00;99.90
35682;DHT22;21805;51.022;4.782;2023-07-13T04:38:46;18.00;99.90
35682;DHT22;21805;51.022;4.782;2023-07-13T04:41:11;18.10;99.90
35682;DHT22;21805;51.022;4.782;2023-07-13T04:43:37;18.10;99.90
35682;DHT22;21805;51.022;4.782;2023-07-13T04:46:07;18.10;99.90
35682;DHT22;21805;51.022;4.782;2023-07-13T04:48:32;18.10;99.90
35682;DHT22;21805;51.022;4.782;2023-07-13T04:50:58;18.10;99.90
35682;DHT22;21805;51.022;4.782;2023-07-13T04:53:24;18.10;99.90
35682;DHT22;21805;51.022;4.782;2023-07-13T04:55:50;18.10;99.90
35682;DHT22;21805;51.022;4.782;2023-07-13T04:58:16;18.10;99.90
35682;DHT22;21805;51.022;4.782;2023-07-13T05:00:41;18.10;99.90
35682;DHT22;21805;51.022;4.782;2023-07-13T05:03:07;18.10;99.90
35682;DHT22;21805;51.022;4.782;2023-07-13T05:05:33;18.20;99.90
35682;DHT22;21805;51.022;4.782;2023-07-13T05:07:59;18.20;99.90
35682;DHT22;21805;51.022;4.782;2023-07-13T05:10:25;18.10;99.90
35682;DHT22;21805;51.022;4.782;2023-07-13T05:12:50;18.20;99.90
35682;DHT22;21805;51.022;4.782;2023-07-13T05:15:16;18.20;99.90
35682;DHT22;21805;51.022;4.782;2023-07-13T05:17:46;18.20;99.90
35682;DHT22;21805;51.022;4.782;2023-07-13T05:20:13;18.30;99.90
35682;DHT22;21805;51.022;4.782;2023-07-13T05:22:42;18.20;99.90
35682;DHT22;21805;51.022;4.782;2023-07-13T05:25:10;18.20;99.90
35682;DHT22;21805;51.022;4.782;2023-07-13T05:27:37;18.30;99.90
35682;DHT22;21805;51.022;4.782;2023-07-13T05:32:32;18.40;99.90
35682;DHT22;21805;51.022;4.782;2023-07-13T05:38:14;18.50;99.90
35682;DHT22;21805;51.022;4.782;2023-07-13T05:40:42;18.60;99.90
35682;DHT22;21805;51.022;4.782;2023-07-13T05:43:24;18.60;99.90
35682;DHT22;21805;51.022;4.782;2023-07-13T05:49:04;18.70;99.90
35682;DHT22;21805;51.022;4.782;2023-07-13T05:51:40;18.70;99.90
35682;DHT22;21805;51.022;4.782;2023-07-13T05:57:08;18.70;99.90
35682;DHT22;21805;51.022;4.782;2023-07-13T05:59:56;18.80;99.90
35682;DHT22;21805;51.022;4.782;2023-07-13T06:07:33;19.00;99.90
35682;DHT22;21805;51.022;4.782;2023-07-13T06:17:49;19.20;99.90
35682;DHT22;21805;51.022;4.782;2023-07-13T06:20:15;19.20;99.90
35682;DHT22;21805;51.022;4.782;2023-07-13T06:22:43;19.20;99.90
35682;DHT22;21805;51.022;4.782;2023-07-13T06:25:10;19.20;99.90
35682;DHT22;21805;51.022;4.782;2023-07-13T06:27:37;19.20;99.90
35682;DHT22;21805;51.022;4.782;2023-07-13T06:30:17;19.30;99.90
35682;DHT22;21805;51.022;4.782;2023-07-13T08:44:19;23.00;99.90
35682;DHT22;21805;51.022;4.782;2023-07-13T08:52:49;23.40;99.90
35682;DHT22;21805;51.022;4.782;2023-07-13T08:55:28;23.70;99.90
35682;DHT22;21805;51.022;4.782;2023-07-13T09:00:24;24.30;99.90
35682;DHT22;21805;51.022;4.782;2023-07-13T09:02:56;24.30;99.90
35682;DHT22;21805;51.022;4.782;2023-07-13T09:05:38;24.30;99.90
35682;DHT22;21805;51.022;4.782;2023-07-13T09:08:16;24.60;99.90
35682;DHT22;21805;51.022;4.782;2023-07-13T09:10:57;24.80;99.90
35682;DHT22;21805;51.022;4.782;2023-07-13T09:15:59;24.10;99.90
35682;DHT22;21805;51.022;4.782;2023-07-13T09:18:27;23.80;99.90
35682;DHT22;21805;51.022;4.782;2023-07-13T09:20:54;23.60;99.90
35682;DHT22;21805;51.022;4.782;2023-07-13T09:23:27;23.90;99.90
35682;DHT22;21805;51.022;4.782;2023-07-13T09:25:59;24.00;99.90
35682;DHT22;21805;51.022;4.782;2023-07-13T09:28:26;24.20;99.90
35682;DHT22;21805;51.022;4.782;2023-07-13T09:33:38;24.20;99.90
35682;DHT22;21805;51.022;4.782;2023-07-13T09:38:58;24.30;99.90
35682;DHT22;21805;51.022;4.782;2023-07-13T09:41:31;24.10;99.90
35682;DHT22;21805;51.022;4.782;2023-07-13T09:44:06;24.40;99.90
35682;DHT22;21805;51.022;4.782;2023-07-13T09:46:38;24.60;99.90
35682;DHT22;21805;51.022;4.782;2023-07-13T09:49:09;24.50;99.90
35682;DHT22;21805;51.022;4.782;2023-07-13T09:51:41;24.30;99.90
35682;DHT22;21805;51.022;4.782;2023-07-13T09:54:23;24.20;99.90
35682;DHT22;21805;51.022;4.782;2023-07-13T09:56:59;24.10;99.90
35682;DHT22;21805;51.022;4.782;2023-07-13T09:59:34;24.30;99.90
35682;DHT22;21805;51.022;4.782;2023-07-13T10:04:43;24.30;99.90
35682;DHT22;21805;51.022;4.782;2023-07-13T10:07:12;24.40;99.90
35682;DHT22;21805;51.022;4.782;2023-07-13T10:09:42;24.40;99.90
35682;DHT22;21805;51.022;4.782;2023-07-13T10:12:17;24.70;99.90
35682;DHT22;21805;51.022;4.782;2023-07-13T10:14:43;24.80;99.90
35682;DHT22;21805;51.022;4.782;2023-07-13T10:17:10;24.70;99.90
35682;DHT22;21805;51.022;4.782;2023-07-13T10:27:29;25.60;99.90
35682;DHT22;21805;51.022;4.782;2023-07-13T10:36:03;26.10;99.90
35682;DHT22;21805;51.022;4.782;2023-07-13T10:39:04;25.90;99.90
35682;DHT22;21805;51.022;4.782;2023-07-13T12:36:46;23.20;99.90
35682;DHT22;21805;51.022;4.782;2023-07-13T12:39:24;22.90;99.90
35682;DHT22;21805;51.022;4.782;2023-07-13T12:41:51;22.60;99.90
35682;DHT22;21805;51.022;4.782;2023-07-13T12:44:50;22.20;99.90
35682;DHT22;21805;51.022;4.782;2023-07-13T12:47:16;21.80;99.90
35682;DHT22;21805;51.022;4.782;2023-07-13T12:49:44;21.50;99.90
35682;DHT22;21805;51.022;4.782;2023-07-13T12:52:29;21.50;99.90
35682;DHT22;21805;51.022;4.782;2023-07-13T12:55:10;21.30;99.90
35682;DHT22;21805;51.022;4.782;2023-07-13T12:57:57;21.30;99.90
35682;DHT22;21805;51.022;4.782;2023-07-13T13:09:39;21.10;99.90
35682;DHT22;21805;51.022;4.782;2023-07-13T13:12:29;21.20;99.90
35682;DHT22;21805;51.022;4.782;2023-07-13T13:15:00;21.20;99.90
35682;DHT22;21805;51.022;4.782;2023-07-13T13:20:35;21.30;99.90
35682;DHT22;21805;51.022;4.782;2023-07-13T13:23:04;21.40;99.90
35682;DHT22;21805;51.022;4.782;2023-07-13T13:28:51;21.40;99.90
35682;DHT22;21805;51.022;4.782;2023-07-13T13:34:55;21.40;99.90
35682;DHT22;21805;51.022;4.782;2023-07-13T13:37:21;21.30;99.90
35682;DHT22;21805;51.022;4.782;2023-07-13T13:40:20;21.30;99.90
35682;DHT22;21805;51.022;4.782;2023-07-13T13:48:20;21.50;99.90
35682;DHT22;21805;51.022;4.782;2023-07-13T13:51:16;21.40;99.90
35682;DHT22;21805;51.022;4.782;2023-07-13T13:53:55;21.40;99.90
35682;DHT22;21805;51.022;4.782;2023-07-13T13:56:29;21.60;99.90
35682;DHT22;21805;51.022;4.782;2023-07-13T13:58:59;21.50;99.90
35682;DHT22;21805;51.022;4.782;2023-07-13T14:01:47;21.60;99.90
35682;DHT22;21805;51.022;4.782;2023-07-13T14:04:30;21.80;99.90
35682;DHT22;21805;51.022;4.782;2023-07-13T14:10:11;22.00;99.90
35682;DHT22;21805;51.022;4.782;2023-07-13T14:12:41;22.00;99.90
35682;DHT22;21805;51.022;4.782;2023-07-13T14:18:17;22.00;99.90
35682;DHT22;21805;51.022;4.782;2023-07-13T14:20:49;22.00;99.90
35682;DHT22;21805;51.022;4.782;2023-07-13T14:23:20;22.10;99.90
35682;DHT22;21805;51.022;4.782;2023-07-13T14:25:46;22.20;99.90
35682;DHT22;21805;51.022;4.782;2023-07-13T14:28:25;22.20;99.90
35682;DHT22;21805;51.022;4.782;2023-07-13T14:33:23;22.60;99.90
35682;DHT22;21805;51.022;4.782;2023-07-13T14:38:18;23.80;99.90
35682;DHT22;21805;51.022;4.782;2023-07-13T14:40:53;24.40;99.90
35682;DHT22;21805;51.022;4.782;2023-07-13T14:45:50;24.80;99.90
35682;DHT22;21805;51.022;4.782;2023-07-13T14:48:19;24.90;99.90
35682;DHT22;21805;51.022;4.782;2023-07-13T14:50:45;25.10;99.90
35682;DHT22;21805;51.022;4.782;2023-07-13T14:53:12;25.10;99.90
35682;DHT22;21805;51.022;4.782;2023-07-13T14:55:39;25.00;99.90
35682;DHT22;21805;51.022;4.782;2023-07-13T14:58:08;24.90;99.90
35682;DHT22;21805;51.022;4.782;2023-07-13T15:00:40;24.80;99.90
35682;DHT22;21805;51.022;4.782;2023-07-13T15:03:22;24.80;99.90
35682;DHT22;21805;51.022;4.782;2023-07-13T15:05:54;24.70;99.90
35682;DHT22;21805;51.022;4.782;2023-07-13T15:08:20;24.60;99.90
35682;DHT22;21805;51.022;4.782;2023-07-13T15:13:21;24.40;99.90
35682;DHT22;21805;51.022;4.782;2023-07-13T15:15:47;24.30;99.90
35682;DHT22;21805;51.022;4.782;2023-07-13T15:18:14;24.30;99.90
35682;DHT22;21805;51.022;4.782;2023-07-13T15:20:43;24.40;99.90
35682;DHT22;21805;51.022;4.782;2023-07-13T15:23:13;24.80;99.90
35682;DHT22;21805;51.022;4.782;2023-07-13T15:25:43;25.00;99.90
35682;DHT22;21805;51.022;4.782;2023-07-13T15:44:48;25.60;99.90
35682;DHT22;21805;51.022;4.782;2023-07-13T15:55:47;25.30;99.90
35682;DHT22;21805;51.022;4.782;2023-07-13T15:58:39;25.30;99.90
35682;DHT22;21805;51.022;4.782;2023-07-13T16:01:08;25.20;99.90
35682;DHT22;21805;51.022;4.782;2023-07-13T16:09:10;24.50;99.90
35682;DHT22;21805;51.022;4.782;2023-07-13T16:16:55;24.50;99.90
35682;DHT22;21805;51.022;4.782;2023-07-13T16:22:44;24.40;99.90
35682;DHT22;21805;51.022;4.782;2023-07-13T16:25:17;24.40;99.90
35682;DHT22;21805;51.022;4.782;2023-07-13T16:27:44;24.40;99.90
35682;DHT22;21805;51.022;4.782;2023-07-13T16:30:13;24.40;99.90
35682;DHT22;21805;51.022;4.782;2023-07-13T16:32:39;24.40;99.90
35682;DHT22;21805;51.022;4.782;2023-07-13T16:35:05;24.40;99.90
35682;DHT22;21805;51.022;4.782;2023-07-13T16:37:31;24.40;99.90
35682;DHT22;21805;51.022;4.782;2023-07-13T16:39:57;24.40;99.90
35682;DHT22;21805;51.022;4.782;2023-07-13T16:42:25;24.40;99.90
35682;DHT22;21805;51.022;4.782;2023-07-13T16:44:54;24.40;99.90
35682;DHT22;21805;51.022;4.782;2023-07-13T16:47:21;24.30;99.90
35682;DHT22;21805;51.022;4.782;2023-07-13T16:49:52;24.20;99.90
35682;DHT22;21805;51.022;4.782;2023-07-13T16:52:19;24.30;99.90
35682;DHT22;21805;51.022;4.782;2023-07-13T16:54:45;24.20;99.90
35682;DHT22;21805;51.022;4.782;2023-07-13T16:57:12;24.20;99.90
35682;DHT22;21805;51.022;4.782;2023-07-13T16:59:39;24.20;99.90
35682;DHT22;21805;51.022;4.782;2023-07-13T17:04:40;24.20;99.90
35682;DHT22;21805;51.022;4.782;2023-07-13T17:07:07;24.10;99.90
35682;DHT22;21805;51.022;4.782;2023-07-13T17:09:34;24.20;99.90
35682;DHT22;21805;51.022;4.782;2023-07-13T17:12:01;24.10;99.90
35682;DHT22;21805;51.022;4.782;2023-07-13T17:14:33;24.20;99.90
35682;DHT22;21805;51.022;4.782;2023-07-13T17:17:44;24.00;99.90
35682;DHT22;21805;51.022;4.782;2023-07-13T17:19:57;24.10;99.90
35682;DHT22;21805;51.022;4.782;2023-07-13T17:22:24;24.10;99.90
35682;DHT22;21805;51.022;4.782;2023-07-13T17:24:54;24.10;99.90
35682;DHT22;21805;51.022;4.782;2023-07-13T17:27:22;24.10;99.90
35682;DHT22;21805;51.022;4.782;2023-07-13T17:29:47;24.00;99.90
35682;DHT22;21805;51.022;4.782;2023-07-13T17:32:17;24.00;99.90
35682;DHT22;21805;51.022;4.782;2023-07-13T17:39:58;23.90;99.90
35682;DHT22;21805;51.022;4.782;2023-07-13T17:52:49;23.70;99.90
35682;DHT22;21805;51.022;4.782;2023-07-13T17:55:16;23.70;99.90
35682;DHT22;21805;51.022;4.782;2023-07-13T17:57:43;23.60;99.90
35682;DHT22;21805;51.022;4.782;2023-07-13T18:00:10;23.50;99.90
35682;DHT22;21805;51.022;4.782;2023-07-13T18:02:56;23.50;99.90
35682;DHT22;21805;51.022;4.782;2023-07-13T18:05:23;23.50;99.90
35682;DHT22;21805;51.022;4.782;2023-07-13T18:07:51;23.60;99.90
35682;DHT22;21805;51.022;4.782;2023-07-13T18:10:17;23.60;99.90
35682;DHT22;21805;51.022;4.782;2023-07-13T18:12:42;23.50;99.90
35682;DHT22;21805;51.022;4.782;2023-07-13T18:15:11;23.50;99.90
35682;DHT22;21805;51.022;4.782;2023-07-13T18:17:36;23.50;99.90
35682;DHT22;21805;51.022;4.782;2023-07-13T18:20:05;23.50;99.90
35682;DHT22;21805;51.022;4.782;2023-07-13T18:22:37;23.40;99.90
35682;DHT22;21805;51.022;4.782;2023-07-13T18:25:13;23.40;99.90
35682;DHT22;21805;51.022;4.782;2023-07-13T18:27:38;23.30;99.90
35682;DHT22;21805;51.022;4.782;2023-07-13T18:30:04;23.20;99.90
35682;DHT22;21805;51.022;4.782;2023-07-13T18:32:30;23.20;99.90
35682;DHT22;21805;51.022;4.782;2023-07-13T18:34:56;23.20;99.90
35682;DHT22;21805;51.022;4.782;2023-07-13T18:37:22;23.20;99.90
35682;DHT22;21805;51.022;4.782;2023-07-13T18:39:49;23.20;99.90
35682;DHT22;21805;51.022;4.782;2023-07-13T18:42:16;23.20;99.90
35682;DHT22;21805;51.022;4.782;2023-07-13T18:44:42;23.10;99.90
35682;DHT22;21805;51.022;4.782;2023-07-13T18:47:17;23.10;99.90
35682;DHT22;21805;51.022;4.782;2023-07-13T18:49:45;22.90;99.90
35682;DHT22;21805;51.022;4.782;2023-07-13T18:52:29;22.80;99.90
35682;DHT22;21805;51.022;4.782;2023-07-13T18:54:55;22.70;99.90
35682;DHT22;21805;51.022;4.782;2023-07-13T18:57:21;22.60;99.90
35682;DHT22;21805;51.022;4.782;2023-07-13T18:59:46;22.60;99.90
35682;DHT22;21805;51.022;4.782;2023-07-13T19:02:13;22.60;99.90
35682;DHT22;21805;51.022;4.782;2023-07-13T19:04:39;22.50;99.90
35682;DHT22;21805;51.022;4.782;2023-07-13T19:07:07;22.50;99.90
35682;DHT22;21805;51.022;4.782;2023-07-13T19:09:33;22.50;99.90
35682;DHT22;21805;51.022;4.782;2023-07-13T19:12:00;22.50;99.90
35682;DHT22;21805;51.022;4.782;2023-07-13T19:14:25;22.40;99.90
35682;DHT22;21805;51.022;4.782;2023-07-13T19:16:52;22.40;99.90
35682;DHT22;21805;51.022;4.782;2023-07-13T19:19:19;22.40;99.90
35682;DHT22;21805;51.022;4.782;2023-07-13T19:21:45;22.40;99.90
35682;DHT22;21805;51.022;4.782;2023-07-13T19:24:12;22.40;99.90
35682;DHT22;21805;51.022;4.782;2023-07-13T19:26:38;22.30;99.90
35682;DHT22;21805;51.022;4.782;2023-07-13T19:29:04;22.10;99.90
35682;DHT22;21805;51.022;4.782;2023-07-13T19:31:39;22.00;99.90
35682;DHT22;21805;51.022;4.782;2023-07-13T19:36:35;22.00;99.90
35682;DHT22;21805;51.022;4.782;2023-07-13T19:39:02;22.00;99.90
35682;DHT22;21805;51.022;4.782;2023-07-13T19:41:28;21.90;99.90
35682;DHT22;21805;51.022;4.782;2023-07-13T19:43:56;21.80;99.90
35682;DHT22;21805;51.022;4.782;2023-07-13T19:46:29;21.60;99.90
35682;DHT22;21805;51.022;4.782;2023-07-13T19:48:57;21.60;99.90
35682;DHT22;21805;51.022;4.782;2023-07-13T19:51:22;21.60;99.90
35682;DHT22;21805;51.022;4.782;2023-07-13T19:53:49;21.60;99.90
35682;DHT22;21805;51.022;4.782;2023-07-13T19:56:16;21.60;99.90
35682;DHT22;21805;51.022;4.782;2023-07-13T19:58:42;21.70;99.90
35682;DHT22;21805;51.022;4.782;2023-07-13T20:01:07;21.70;99.90
35682;DHT22;21805;51.022;4.782;2023-07-13T20:03:33;21.70;99.90
35682;DHT22;21805;51.022;4.782;2023-07-13T20:05:59;21.70;99.90
35682;DHT22;21805;51.022;4.782;2023-07-13T20:08:25;21.70;99.90
35682;DHT22;21805;51.022;4.782;2023-07-13T20:10:55;21.70;99.90
35682;DHT22;21805;51.022;4.782;2023-07-13T20:13:21;21.60;99.90
35682;DHT22;21805;51.022;4.782;2023-07-13T20:15:48;21.60;99.90
35682;DHT22;21805;51.022;4.782;2023-07-13T20:18:14;21.60;99.90
35682;DHT22;21805;51.022;4.782;2023-07-13T20:20:41;21.60;99.90
35682;DHT22;21805;51.022;4.782;2023-07-13T20:25:36;21.60;99.90
35682;DHT22;21805;51.022;4.782;2023-07-13T20:28:01;21.60;99.90
35682;DHT22;21805;51.022;4.782;2023-07-13T20:30:40;21.60;99.90
35682;DHT22;21805;51.022;4.782;2023-07-13T20:33:07;21.60;99.90
35682;DHT22;21805;51.022;4.782;2023-07-13T20:35:36;21.50;99.90
35682;DHT22;21805;51.022;4.782;2023-07-13T20:38:02;21.40;99.90
35682;DHT22;21805;51.022;4.782;2023-07-13T20:40:31;21.40;99.90
35682;DHT22;21805;51.022;4.782;2023-07-13T20:42:58;21.30;99.90
35682;DHT22;21805;51.022;4.782;2023-07-13T20:45:28;21.20;99.90
35682;DHT22;21805;51.022;4.782;2023-07-13T20:47:57;21.20;99.90
35682;DHT22;21805;51.022;4.782;2023-07-13T20:50:26;21.20;99.90
35682;DHT22;21805;51.022;4.782;2023-07-13T20:52:53;21.20;99.90
35682;DHT22;21805;51.022;4.782;2023-07-13T20:55:22;21.30;99.90
35682;DHT22;21805;51.022;4.782;2023-07-13T20:57:47;21.20;99.90
35682;DHT22;21805;51.022;4.782;2023-07-13T21:00:17;21.20;99.90
35682;DHT22;21805;51.022;4.782;2023-07-13T21:02:43;21.20;99.90
35682;DHT22;21805;51.022;4.782;2023-07-13T21:05:13;21.20;99.90
35682;DHT22;21805;51.022;4.782;2023-07-13T21:07:39;21.20;99.90
35682;DHT22;21805;51.022;4.782;2023-07-13T21:10:12;21.20;99.90
35682;DHT22;21805;51.022;4.782;2023-07-13T21:12:38;21.20;99.90
35682;DHT22;21805;51.022;4.782;2023-07-13T21:15:03;21.20;99.90
35682;DHT22;21805;51.022;4.782;2023-07-13T21:17:30;21.20;99.90
35682;DHT22;21805;51.022;4.782;2023-07-13T21:27:13;21.10;99.90
35682;DHT22;21805;51.022;4.782;2023-07-13T21:29:38;21.00;99.90
35682;DHT22;21805;51.022;4.782;2023-07-13T21:32:05;20.90;99.90
35682;DHT22;21805;51.022;4.782;2023-07-13T21:34:31;20.90;99.90
35682;DHT22;21805;51.022;4.782;2023-07-13T21:36:57;20.90;99.90
35682;DHT22;21805;51.022;4.782;2023-07-13T21:39:24;20.90;99.90
35682;DHT22;21805;51.022;4.782;2023-07-13T21:41:50;20.90;99.90
35682;DHT22;21805;51.022;4.782;2023-07-13T21:44:27;20.90;99.90
35682;DHT22;21805;51.022;4.782;2023-07-13T21:46:53;20.80;99.90
35682;DHT22;21805;51.022;4.782;2023-07-13T21:49:19;20.80;99.90
35682;DHT22;21805;51.022;4.782;2023-07-13T21:51:45;20.80;99.90
35682;DHT22;21805;51.022;4.782;2023-07-13T21:54:18;20.80;99.90
35682;DHT22;21805;51.022;4.782;2023-07-13T21:56:44;20.80;99.90
35682;DHT22;21805;51.022;4.782;2023-07-13T21:59:24;20.80;99.90
35682;DHT22;21805;51.022;4.782;2023-07-13T22:01:50;20.70;99.90
35682;DHT22;21805;51.022;4.782;2023-07-13T22:04:17;20.70;99.90
35682;DHT22;21805;51.022;4.782;2023-07-13T22:06:43;20.80;99.90
35682;DHT22;21805;51.022;4.782;2023-07-13T22:09:15;20.70;99.90
35682;DHT22;21805;51.022;4.782;2023-07-13T22:11:41;20.70;99.90
35682;DHT22;21805;51.022;4.782;2023-07-13T22:14:07;20.70;99.90
35682;DHT22;21805;51.022;4.782;2023-07-13T22:16:32;20.70;99.90
35682;DHT22;21805;51.022;4.782;2023-07-13T22:18:59;20.60;99.90
35682;DHT22;21805;51.022;4.782;2023-07-13T22:21:26;20.60;99.90
35682;DHT22;21805;51.022;4.782;2023-07-13T22:23:53;20.60;99.90
35682;DHT22;21805;51.022;4.782;2023-07-13T22:26:29;20.50;99.90
35682;DHT22;21805;51.022;4.782;2023-07-13T22:28:56;20.50;99.90
35682;DHT22;21805;51.022;4.782;2023-07-13T22:31:25;20.40;99.90
35682;DHT22;21805;51.022;4.782;2023-07-13T22:33:53;20.30;99.90
35682;DHT22;21805;51.022;4.782;2023-07-13T22:36:20;20.30;99.90
35682;DHT22;21805;51.022;4.782;2023-07-13T22:38:46;20.30;99.90
35682;DHT22;21805;51.022;4.782;2023-07-13T22:41:16;20.20;99.90
35682;DHT22;21805;51.022;4.782;2023-07-13T22:43:43;20.20;99.90
35682;DHT22;21805;51.022;4.782;2023-07-13T22:46:11;20.10;99.90
35682;DHT22;21805;51.022;4.782;2023-07-13T22:48:38;20.10;99.90
35682;DHT22;21805;51.022;4.782;2023-07-13T22:51:09;20.00;99.90
35682;DHT22;21805;51.022;4.782;2023-07-13T22:53:36;20.00;99.90
35682;DHT22;21805;51.022;4.782;2023-07-13T22:56:02;20.00;99.90
35682;DHT22;21805;51.022;4.782;2023-07-13T22:58:27;20.00;99.90
35682;DHT22;21805;51.022;4.782;2023-07-13T23:00:53;20.00;99.90
35682;DHT22;21805;51.022;4.782;2023-07-13T23:03:19;20.00;99.90
35682;DHT22;21805;51.022;4.782;2023-07-13T23:05:45;20.00;99.90
35682;DHT22;21805;51.022;4.782;2023-07-13T23:08:12;19.90;99.90
35682;DHT22;21805;51.022;4.782;2023-07-13T23:10:38;19.90;99.90
35682;DHT22;21805;51.022;4.782;2023-07-13T23:13:03;19.90;99.90
35682;DHT22;21805;51.022;4.782;2023-07-13T23:15:30;19.90;99.90
35682;DHT22;21805;51.022;4.782;2023-07-13T23:17:56;19.90;99.90
35682;DHT22;21805;51.022;4.782;2023-07-13T23:20:26;19.90;99.90
35682;DHT22;21805;51.022;4.782;2023-07-13T23:22:53;19.90;99.90
35682;DHT22;21805;51.022;4.782;2023-07-13T23:25:21;19.90;99.90
35682;DHT22;21805;51.022;4.782;2023-07-13T23:27:48;19.90;99.90
35682;DHT22;21805;51.022;4.782;2023-07-13T23:30:15;19.80;99.90
35682;DHT22;21805;51.022;4.782;2023-07-13T23:32:41;19.80;99.90
35682;DHT22;21805;51.022;4.782;2023-07-13T23:35:11;19.80;99.90
35682;DHT22;21805;51.022;4.782;2023-07-13T23:37:40;19.70;99.90
35682;DHT22;21805;51.022;4.782;2023-07-13T23:40:14;19.70;99.90
35682;DHT22;21805;51.022;4.782;2023-07-13T23:42:41;19.60;99.90
35682;DHT22;21805;51.022;4.782;2023-07-13T23:45:14;19.60;99.90
35682;DHT22;21805;51.022;4.782;2023-07-13T23:47:40;19.50;99.90
35682;DHT22;21805;51.022;4.782;2023-07-13T23:50:11;19.50;99.90
35682;DHT22;21805;51.022;4.782;2023-07-13T23:52:37;19.50;99.90
35682;DHT22;21805;51.022;4.782;2023-07-13T23:55:13;19.50;99.90
35682;DHT22;21805;51.022;4.782;2023-07-13T23:57:40;19.50;99.90
